createdAt,value
2022-12-14T00:00:32.199Z,0.54
2022-12-14T00:02:06.838Z,0.53
2022-12-14T00:03:40.187Z,0.55
2022-12-14T00:05:15.927Z,0.55
2022-12-14T00:06:49.313Z,0.55
2022-12-14T00:08:22.742Z,0.60
2022-12-14T00:09:56.099Z,0.63
2022-12-14T00:11:29.984Z,0.64
2022-12-14T00:13:03.241Z,0.60
2022-12-14T00:14:36.716Z,0.57
2022-12-14T00:16:11.988Z,0.54
2022-12-14T00:17:45.391Z,0.51
2022-12-14T00:19:18.531Z,0.45
2022-12-14T00:20:53.407Z,0.43
2022-12-14T00:22:26.570Z,0.44
2022-12-14T00:24:01.081Z,0.39
2022-12-14T00:25:34.236Z,0.34
2022-12-14T00:27:07.613Z,0.28
2022-12-14T00:28:41.414Z,0.17
2022-12-14T00:30:17.616Z,0.25
2022-12-14T00:31:51.290Z,0.29
2022-12-14T00:33:24.645Z,0.31
2022-12-14T00:34:58.002Z,0.39
2022-12-14T00:36:32.646Z,0.38
2022-12-14T00:38:04.864Z,0.36
2022-12-14T00:39:38.343Z,0.38
2022-12-14T00:41:12.557Z,0.39
2022-12-14T00:42:46.020Z,0.49
2022-12-14T00:44:19.198Z,0.55
2022-12-14T00:45:52.733Z,0.56
2022-12-14T00:47:27.509Z,0.59
2022-12-14T00:49:01.168Z,0.62
2022-12-14T00:50:34.563Z,0.62
2022-12-14T00:52:09.320Z,0.63
2022-12-14T00:53:45.027Z,0.66
2022-12-14T00:55:18.778Z,0.67
2022-12-14T00:56:51.966Z,0.70
2022-12-14T00:58:28.087Z,0.71
2022-12-14T01:00:01.382Z,0.70
2022-12-14T01:01:33.782Z,0.72
2022-12-14T01:03:08.024Z,0.68
2022-12-14T01:04:41.542Z,0.65
2022-12-14T01:06:16.249Z,0.62
2022-12-14T01:07:50.958Z,0.58
2022-12-14T01:09:25.905Z,0.56
2022-12-14T01:10:59.277Z,0.56
2022-12-14T01:12:32.498Z,0.52
2022-12-14T01:14:05.817Z,0.55
2022-12-14T01:15:39.104Z,0.56
2022-12-14T01:17:12.524Z,0.58
2022-12-14T01:18:46.020Z,0.56
2022-12-14T01:20:19.482Z,0.55
2022-12-14T01:21:53.553Z,0.62
2022-12-14T01:23:27.663Z,0.65
2022-12-14T01:25:01.128Z,0.65
2022-12-14T01:26:38.857Z,0.66
2022-12-14T01:28:12.118Z,0.67
2022-12-14T01:29:45.625Z,0.66
2022-12-14T01:31:21.624Z,0.65
2022-12-14T01:32:55.138Z,0.63
2022-12-14T01:34:28.389Z,0.62
2022-12-14T01:36:04.947Z,0.62
2022-12-14T01:37:38.084Z,0.64
2022-12-14T01:39:15.162Z,0.64
2022-12-14T01:40:48.293Z,0.65
2022-12-14T01:42:21.647Z,0.67
2022-12-14T01:43:56.140Z,0.64
2022-12-14T01:45:30.119Z,0.67
2022-12-14T01:47:12.134Z,0.68
2022-12-14T01:48:49.969Z,0.70
2022-12-14T01:50:30.404Z,0.67
2022-12-14T01:52:09.163Z,0.69
2022-12-14T01:53:42.673Z,0.67
2022-12-14T01:55:22.342Z,0.65
2022-12-14T01:56:56.634Z,0.56
2022-12-14T01:58:29.999Z,0.61
2022-12-14T02:00:07.619Z,0.62
2022-12-14T02:01:41.845Z,0.61
2022-12-14T02:03:19.202Z,0.66
2022-12-14T02:04:57.430Z,0.67
2022-12-14T02:06:35.276Z,0.70
2022-12-14T02:08:10.180Z,0.67
2022-12-14T02:09:46.139Z,0.59
2022-12-14T02:11:30.536Z,0.58
2022-12-14T02:13:11.001Z,0.53
2022-12-14T02:14:44.598Z,0.55
2022-12-14T02:16:17.811Z,0.47
2022-12-14T02:17:51.270Z,0.42
2022-12-14T02:19:23.778Z,0.37
2022-12-14T02:21:18.294Z,0.34
2022-12-14T02:23:12.164Z,0.37
2022-12-14T02:25:24.076Z,0.37
2022-12-14T02:27:11.267Z,0.50
2022-12-14T02:29:21.157Z,0.54
2022-12-14T02:30:59.216Z,0.54
2022-12-14T02:32:47.577Z,0.55
2022-12-14T02:34:31.922Z,0.56
2022-12-14T02:36:14.628Z,0.48
2022-12-14T02:37:55.422Z,0.44
2022-12-14T02:39:36.148Z,0.51
2022-12-14T02:41:18.174Z,0.50
2022-12-14T02:43:03.230Z,0.48
2022-12-14T02:44:47.834Z,0.44
2022-12-14T02:46:28.067Z,0.41
2022-12-14T02:48:04.658Z,0.28
2022-12-14T02:49:52.856Z,0.23
2022-12-14T02:51:36.979Z,0.34
2022-12-14T02:53:19.526Z,0.36
2022-12-14T02:54:58.521Z,0.42
2022-12-14T02:56:37.847Z,0.37
2022-12-14T02:58:17.361Z,0.48
2022-12-14T02:59:56.356Z,0.47
2022-12-14T03:01:30.366Z,0.43
2022-12-14T03:03:06.342Z,0.42
2022-12-14T03:04:45.957Z,0.40
2022-12-14T03:06:27.141Z,0.44
2022-12-14T03:08:01.979Z,0.45
2022-12-14T03:09:36.035Z,0.52
2022-12-14T03:11:21.548Z,0.55
2022-12-14T03:12:58.281Z,0.60
2022-12-14T03:14:35.676Z,0.63
2022-12-14T03:16:16.354Z,0.66
2022-12-14T03:17:53.332Z,0.69
2022-12-14T03:19:31.048Z,0.70
2022-12-14T03:21:08.580Z,0.71
2022-12-14T03:22:45.967Z,0.72
2022-12-14T03:24:24.661Z,0.73
2022-12-14T03:26:04.553Z,0.76
2022-12-14T03:27:41.107Z,0.76
2022-12-14T03:29:19.809Z,0.74
2022-12-14T03:31:00.339Z,0.72
2022-12-14T03:32:40.010Z,0.66
2022-12-14T03:34:16.904Z,0.65
2022-12-14T03:35:56.389Z,0.55
2022-12-14T03:37:36.078Z,0.52
2022-12-14T03:39:13.974Z,0.58
2022-12-14T03:40:54.495Z,0.67
2022-12-14T03:42:36.901Z,0.69
2022-12-14T03:44:21.232Z,0.76
2022-12-14T03:46:01.481Z,0.74
2022-12-14T03:47:54.913Z,0.86
2022-12-14T03:49:41.260Z,0.91
2022-12-14T03:51:22.564Z,0.88
2022-12-14T03:53:02.500Z,0.87
2022-12-14T03:54:46.657Z,0.87
2022-12-14T03:56:24.547Z,0.85
2022-12-14T03:58:19.802Z,0.87
2022-12-14T03:59:59.815Z,0.80
2022-12-14T04:01:42.160Z,0.70
2022-12-14T04:03:24.131Z,0.67
2022-12-14T04:05:04.831Z,0.68
2022-12-14T04:06:45.381Z,0.64
2022-12-14T04:08:26.231Z,0.72
2022-12-14T04:10:05.058Z,0.71
2022-12-14T04:12:15.378Z,0.71
2022-12-14T04:14:13.981Z,0.72
2022-12-14T04:16:06.148Z,0.63
2022-12-14T04:17:58.934Z,0.78
2022-12-14T04:19:40.575Z,0.78
2022-12-14T04:21:20.475Z,0.78
2022-12-14T04:22:58.764Z,0.75
2022-12-14T04:24:57.334Z,0.50
2022-12-14T04:26:34.943Z,0.50
2022-12-14T04:28:33.337Z,0.55
2022-12-14T04:30:08.965Z,0.60
2022-12-14T04:31:47.178Z,0.64
2022-12-14T04:33:40.088Z,0.69
2022-12-14T04:35:20.445Z,0.74
2022-12-14T04:36:57.095Z,0.78
2022-12-14T04:38:37.058Z,0.84
2022-12-14T04:40:15.516Z,0.82
2022-12-14T04:41:53.683Z,0.80
2022-12-14T04:43:31.301Z,0.79
2022-12-14T04:45:09.551Z,0.76
2022-12-14T04:46:44.126Z,0.79
2022-12-14T04:48:23.325Z,0.77
2022-12-14T04:50:02.782Z,0.80
2022-12-14T04:51:48.284Z,0.80
2022-12-14T04:53:26.386Z,0.86
2022-12-14T04:55:07.453Z,0.94
2022-12-14T04:56:47.426Z,0.94
2022-12-14T04:58:25.823Z,0.94
2022-12-14T05:00:00.776Z,0.91
2022-12-14T05:01:49.131Z,0.96
2022-12-14T05:03:28.837Z,0.98
2022-12-14T05:05:08.617Z,0.99
2022-12-14T05:06:57.679Z,0.94
2022-12-14T05:08:52.703Z,0.96
2022-12-14T05:10:37.135Z,0.93
2022-12-14T05:12:17.717Z,0.89
2022-12-14T05:13:51.627Z,0.90
2022-12-14T05:15:28.723Z,0.93
2022-12-14T05:17:08.757Z,0.92
2022-12-14T05:18:44.301Z,1.04
2022-12-14T05:20:19.555Z,1.00
2022-12-14T05:21:53.179Z,1.13
2022-12-14T05:23:26.829Z,1.14
2022-12-14T05:25:00.507Z,1.14
2022-12-14T05:26:33.666Z,1.16
2022-12-14T05:28:07.056Z,1.22
2022-12-14T05:29:40.428Z,1.23
2022-12-14T05:31:13.142Z,1.27
2022-12-14T05:32:46.386Z,1.30
2022-12-14T05:34:19.814Z,1.31
2022-12-14T05:35:53.218Z,1.31
2022-12-14T05:37:27.874Z,1.32
2022-12-14T05:39:01.092Z,1.28
2022-12-14T05:40:34.307Z,1.28
2022-12-14T05:42:07.748Z,1.24
2022-12-14T05:43:40.261Z,1.21
2022-12-14T05:45:14.209Z,1.21
2022-12-14T05:46:47.404Z,1.20
2022-12-14T05:48:20.727Z,1.15
2022-12-14T05:49:54.070Z,1.12
2022-12-14T05:51:27.254Z,1.07
2022-12-14T05:53:01.726Z,1.13
2022-12-14T05:54:39.438Z,1.19
2022-12-14T05:56:13.480Z,1.22
2022-12-14T05:57:46.741Z,1.25
2022-12-14T05:59:19.913Z,1.29
2022-12-14T06:00:53.501Z,1.32
2022-12-14T06:02:27.301Z,1.30
2022-12-14T06:04:00.684Z,1.29
2022-12-14T06:05:33.946Z,1.27
2022-12-14T06:07:10.141Z,1.28
2022-12-14T06:08:46.887Z,1.31
2022-12-14T06:10:20.036Z,1.34
2022-12-14T06:11:53.197Z,1.37
2022-12-14T06:13:26.960Z,1.37
2022-12-14T06:15:00.562Z,1.38
2022-12-14T06:16:36.464Z,1.40
2022-12-14T06:18:09.700Z,1.41
2022-12-14T06:19:49.539Z,1.42
2022-12-14T06:21:25.741Z,1.43
2022-12-14T06:22:59.636Z,1.47
2022-12-14T06:24:34.548Z,1.44
2022-12-14T06:26:08.311Z,1.41
2022-12-14T06:27:43.000Z,1.44
2022-12-14T06:29:17.929Z,1.50
2022-12-14T06:30:52.205Z,1.58
2022-12-14T06:32:25.908Z,1.54
2022-12-14T06:34:00.534Z,1.65
2022-12-14T06:35:33.717Z,1.70
2022-12-14T06:37:07.867Z,1.74
2022-12-14T06:38:41.577Z,1.80
2022-12-14T06:40:16.577Z,1.87
2022-12-14T06:41:52.604Z,1.90
2022-12-14T06:43:27.063Z,1.87
2022-12-14T06:45:00.654Z,1.89
2022-12-14T06:46:34.534Z,1.95
2022-12-14T06:48:08.188Z,2.01
2022-12-14T06:49:41.574Z,2.01
2022-12-14T06:51:15.685Z,2.04
2022-12-14T06:52:50.515Z,2.02
2022-12-14T06:54:25.752Z,1.99
2022-12-14T06:56:09.859Z,1.97
2022-12-14T06:57:43.282Z,1.97
2022-12-14T06:59:18.324Z,1.97
2022-12-14T07:00:51.459Z,1.96
2022-12-14T07:02:24.863Z,1.95
2022-12-14T07:03:59.751Z,1.94
2022-12-14T07:05:33.443Z,1.98
2022-12-14T07:07:07.090Z,1.99
2022-12-14T07:08:42.099Z,2.04
2022-12-14T07:10:16.063Z,2.04
2022-12-14T07:11:53.516Z,2.01
2022-12-14T07:13:27.355Z,2.03
2022-12-14T07:15:01.039Z,2.06
2022-12-14T07:16:37.395Z,2.10
2022-12-14T07:18:12.505Z,2.15
2022-12-14T07:19:45.683Z,2.19
2022-12-14T07:21:23.953Z,2.15
2022-12-14T07:22:57.201Z,2.24
2022-12-14T07:24:30.739Z,2.30
2022-12-14T07:26:04.968Z,2.30
2022-12-14T07:27:40.505Z,2.32
2022-12-14T07:29:15.558Z,2.33
2022-12-14T07:30:49.227Z,2.37
2022-12-14T07:32:22.716Z,2.40
2022-12-14T07:33:58.396Z,2.42
2022-12-14T07:35:32.099Z,2.47
2022-12-14T07:37:06.186Z,2.38
2022-12-14T07:38:43.425Z,2.42
2022-12-14T07:40:17.794Z,2.56
2022-12-14T07:41:52.288Z,2.55
2022-12-14T07:43:31.266Z,2.48
2022-12-14T07:45:05.999Z,2.51
2022-12-14T07:46:39.348Z,2.61
2022-12-14T07:48:12.876Z,2.71
2022-12-14T07:49:46.527Z,2.79
2022-12-14T07:51:23.255Z,2.81
2022-12-14T07:52:56.591Z,2.78
2022-12-14T07:54:30.391Z,2.79
2022-12-14T07:56:05.721Z,2.89
2022-12-14T07:57:39.443Z,2.96
2022-12-14T07:59:16.689Z,2.90
2022-12-14T08:00:50.041Z,2.93
2022-12-14T08:02:23.608Z,2.96
2022-12-14T08:03:59.248Z,2.96
2022-12-14T08:05:32.976Z,2.91
2022-12-14T08:07:06.187Z,2.93
2022-12-14T08:08:40.222Z,2.89
2022-12-14T08:10:13.450Z,2.93
2022-12-14T08:11:47.252Z,2.99
2022-12-14T08:13:20.958Z,2.97
2022-12-14T08:14:56.110Z,2.97
2022-12-14T08:16:31.227Z,2.94
2022-12-14T08:18:04.926Z,3.02
2022-12-14T08:19:38.035Z,3.14
2022-12-14T08:21:14.203Z,3.19
2022-12-14T08:22:47.429Z,3.22
2022-12-14T08:24:21.932Z,3.23
2022-12-14T08:25:55.645Z,3.29
2022-12-14T08:27:31.086Z,3.30
2022-12-14T08:29:04.720Z,3.25
2022-12-14T08:30:41.134Z,3.26
2022-12-14T08:32:14.285Z,3.33
2022-12-14T08:33:48.393Z,3.39
2022-12-14T08:35:21.979Z,3.44
2022-12-14T08:36:56.269Z,3.49
2022-12-14T08:38:30.085Z,3.51
2022-12-14T08:40:04.404Z,3.57
2022-12-14T08:41:38.275Z,3.70
2022-12-14T08:43:12.086Z,3.70
2022-12-14T08:44:45.304Z,3.69
2022-12-14T08:46:25.299Z,3.64
2022-12-14T08:47:59.071Z,3.61
2022-12-14T08:49:33.312Z,3.63
2022-12-14T08:51:08.396Z,3.66
2022-12-14T08:52:41.833Z,3.67
2022-12-14T08:54:14.998Z,3.67
2022-12-14T08:55:48.652Z,3.67
2022-12-14T08:57:24.785Z,3.70
2022-12-14T08:58:58.655Z,3.73
2022-12-14T09:00:32.136Z,3.70
2022-12-14T09:02:07.790Z,3.77
2022-12-14T09:03:41.573Z,3.80
2022-12-14T09:05:15.236Z,3.83
2022-12-14T09:06:49.034Z,3.84
2022-12-14T09:08:22.415Z,3.79
2022-12-14T09:09:56.000Z,3.80
2022-12-14T09:11:29.552Z,3.82
2022-12-14T09:13:02.814Z,3.82
2022-12-14T09:14:36.945Z,3.78
2022-12-14T09:16:14.206Z,3.84
2022-12-14T09:17:51.365Z,3.83
2022-12-14T09:19:24.605Z,3.80
2022-12-14T09:20:58.612Z,3.85
2022-12-14T09:22:31.831Z,3.92
2022-12-14T09:24:06.829Z,3.93
2022-12-14T09:25:40.105Z,3.94
2022-12-14T09:27:13.495Z,3.91
2022-12-14T09:28:48.916Z,3.89
2022-12-14T09:30:26.654Z,3.93
2022-12-14T09:32:20.854Z,3.91
2022-12-14T09:33:56.839Z,3.95
2022-12-14T09:35:30.701Z,3.96
2022-12-14T09:37:05.339Z,4.04
2022-12-14T09:38:44.289Z,3.95
2022-12-14T09:40:27.666Z,3.89
2022-12-14T09:42:17.908Z,3.76
2022-12-14T09:43:56.174Z,3.80
2022-12-14T09:45:34.094Z,3.93
2022-12-14T09:47:14.377Z,4.03
2022-12-14T09:48:49.191Z,4.15
2022-12-14T09:50:25.759Z,4.23
2022-12-14T09:52:02.854Z,4.30
2022-12-14T09:53:38.289Z,4.34
2022-12-14T09:55:21.214Z,4.40
2022-12-14T09:56:56.299Z,4.54
2022-12-14T09:58:32.628Z,4.65
2022-12-14T10:00:13.236Z,4.73
2022-12-14T10:02:29.286Z,4.62
2022-12-14T10:04:01.647Z,4.46
2022-12-14T10:06:03.415Z,4.43
2022-12-14T10:07:42.678Z,4.48
2022-12-14T10:09:24.538Z,4.57
2022-12-14T10:11:07.410Z,4.62
2022-12-14T10:12:53.984Z,4.66
2022-12-14T10:14:44.332Z,4.67
2022-12-14T10:16:26.514Z,4.69
2022-12-14T10:18:49.843Z,4.65
2022-12-14T10:20:23.600Z,4.62
2022-12-14T10:22:02.143Z,4.61
2022-12-14T10:23:36.778Z,4.60
2022-12-14T10:25:15.198Z,4.54
2022-12-14T10:26:52.657Z,4.49
2022-12-14T10:28:39.424Z,4.44
2022-12-14T10:30:19.758Z,4.28
2022-12-14T10:32:01.299Z,4.26
2022-12-14T10:33:35.117Z,4.21
2022-12-14T10:35:16.090Z,4.08
2022-12-14T10:36:55.935Z,3.97
2022-12-14T10:38:39.308Z,3.99
2022-12-14T10:40:29.197Z,3.88
2022-12-14T10:42:16.873Z,3.85
2022-12-14T10:43:58.374Z,3.83
2022-12-14T10:45:41.098Z,3.82
2022-12-14T10:47:21.240Z,3.83
2022-12-14T10:49:01.361Z,3.79
2022-12-14T10:50:44.258Z,3.82
2022-12-14T10:52:27.384Z,3.86
2022-12-14T10:54:17.053Z,3.94
2022-12-14T10:55:56.356Z,3.87
2022-12-14T10:57:30.945Z,3.94
2022-12-14T10:59:35.108Z,4.02
2022-12-14T11:01:15.820Z,4.08
2022-12-14T11:02:51.534Z,4.09
2022-12-14T11:04:31.460Z,4.01
2022-12-14T11:06:12.083Z,3.96
2022-12-14T11:07:46.475Z,3.90
2022-12-14T11:09:26.147Z,3.87
2022-12-14T11:11:12.776Z,3.89
2022-12-14T11:13:00.586Z,3.86
2022-12-14T11:14:34.077Z,3.86
2022-12-14T11:16:33.724Z,3.78
2022-12-14T11:18:31.144Z,3.82
2022-12-14T11:20:17.711Z,3.78
2022-12-14T11:21:57.243Z,3.66
2022-12-14T11:23:31.937Z,3.68
2022-12-14T11:25:07.090Z,3.74
2022-12-14T11:26:43.826Z,3.77
2022-12-14T11:28:22.313Z,3.87
2022-12-14T11:29:56.207Z,3.89
2022-12-14T11:31:35.732Z,3.91
2022-12-14T11:33:17.893Z,3.89
2022-12-14T11:34:59.778Z,3.86
2022-12-14T11:36:55.790Z,3.88
2022-12-14T11:38:31.686Z,3.91
2022-12-14T11:40:08.499Z,3.99
2022-12-14T11:41:44.245Z,4.07
2022-12-14T11:43:26.688Z,4.13
2022-12-14T11:45:21.568Z,4.05
2022-12-14T11:47:02.029Z,4.01
2022-12-14T11:48:38.558Z,4.03
2022-12-14T11:50:25.883Z,3.95
2022-12-14T11:52:02.711Z,3.85
2022-12-14T11:53:36.385Z,3.81
2022-12-14T11:55:16.220Z,3.71
2022-12-14T11:56:54.360Z,3.72
2022-12-14T11:58:32.324Z,3.74
2022-12-14T12:00:09.162Z,3.63
2022-12-14T12:01:42.790Z,3.62
2022-12-14T12:03:20.916Z,3.62
2022-12-14T12:04:58.635Z,3.75
2022-12-14T12:06:33.302Z,3.83
2022-12-14T12:08:07.749Z,3.90
2022-12-14T12:09:43.318Z,3.97
2022-12-14T12:11:21.139Z,4.01
2022-12-14T12:12:56.833Z,4.02
2022-12-14T12:14:34.643Z,4.00
2022-12-14T12:16:15.738Z,4.01
2022-12-14T12:17:55.649Z,4.07
2022-12-14T12:19:34.411Z,4.05
2022-12-14T12:21:14.498Z,4.07
2022-12-14T12:22:53.551Z,4.11
2022-12-14T12:24:30.285Z,4.14
2022-12-14T12:26:12.574Z,4.11
2022-12-14T12:27:53.411Z,3.96
2022-12-14T12:29:32.188Z,4.02
2022-12-14T12:31:13.121Z,3.98
2022-12-14T12:32:50.545Z,3.98
2022-12-14T12:34:30.034Z,3.97
2022-12-14T12:36:06.422Z,3.88
2022-12-14T12:37:48.755Z,3.95
2022-12-14T12:39:26.590Z,3.99
2022-12-14T12:41:07.757Z,3.97
2022-12-14T12:42:46.569Z,3.95
2022-12-14T12:44:37.554Z,4.03
2022-12-14T12:46:17.017Z,4.08
2022-12-14T12:47:55.595Z,4.08
2022-12-14T12:49:29.132Z,4.08
2022-12-14T12:51:05.566Z,4.06
2022-12-14T12:53:02.394Z,4.03
2022-12-14T12:54:41.231Z,3.97
2022-12-14T12:56:18.380Z,3.92
2022-12-14T12:57:55.853Z,3.85
2022-12-14T12:59:39.904Z,3.91
2022-12-14T13:01:24.255Z,3.86
2022-12-14T13:03:02.436Z,3.91
2022-12-14T13:04:49.174Z,3.96
2022-12-14T13:06:31.567Z,3.93
2022-12-14T13:08:09.737Z,3.99
2022-12-14T13:09:49.344Z,4.03
2022-12-14T13:11:27.706Z,4.07
2022-12-14T13:13:10.004Z,4.01
2022-12-14T13:14:49.906Z,4.02
2022-12-14T13:16:30.141Z,4.06
2022-12-14T13:18:07.477Z,4.05
2022-12-14T13:19:52.077Z,4.10
2022-12-14T13:21:35.046Z,4.15
2022-12-14T13:23:36.543Z,4.13
2022-12-14T13:25:13.713Z,4.20
2022-12-14T13:27:19.432Z,4.24
2022-12-14T13:28:59.234Z,4.22
2022-12-14T13:30:47.724Z,4.23
2022-12-14T13:32:39.054Z,4.19
2022-12-14T13:34:34.287Z,4.21
2022-12-14T13:36:40.007Z,4.25
2022-12-14T13:38:33.996Z,4.22
2022-12-14T13:40:41.652Z,4.24
2022-12-14T13:42:24.503Z,4.30
2022-12-14T13:44:26.568Z,4.30
2022-12-14T13:46:17.126Z,4.26
2022-12-14T13:47:54.581Z,4.32
2022-12-14T13:49:29.444Z,4.31
2022-12-14T13:51:05.617Z,4.36
2022-12-14T13:52:42.460Z,4.35
2022-12-14T13:54:22.977Z,4.33
2022-12-14T13:55:58.039Z,4.29
2022-12-14T13:57:32.366Z,4.28
2022-12-14T13:59:18.278Z,4.26
2022-12-14T14:00:58.025Z,4.21
2022-12-14T14:02:43.311Z,4.17
2022-12-14T14:04:22.057Z,4.13
2022-12-14T14:05:59.584Z,4.11
2022-12-14T14:07:52.402Z,4.09
2022-12-14T14:10:00.597Z,4.07
2022-12-14T14:11:55.388Z,4.03
2022-12-14T14:14:03.066Z,3.96
2022-12-14T14:16:11.330Z,3.92
2022-12-14T14:17:44.403Z,3.79
2022-12-14T14:19:24.061Z,3.76
2022-12-14T14:21:31.903Z,3.76
2022-12-14T14:23:34.234Z,3.74
2022-12-14T14:25:41.729Z,3.75
2022-12-14T14:27:21.236Z,3.69
2022-12-14T14:29:20.542Z,3.70
2022-12-14T14:30:56.992Z,3.71
2022-12-14T14:32:40.387Z,3.74
2022-12-14T14:34:22.156Z,3.74
2022-12-14T14:36:09.215Z,3.74
2022-12-14T14:37:42.814Z,3.75
2022-12-14T14:41:31.917Z,3.72
2022-12-14T14:43:08.695Z,3.71
2022-12-14T14:44:50.715Z,3.71
2022-12-14T14:46:35.726Z,3.62
2022-12-14T14:48:23.796Z,3.66
2022-12-14T14:50:01.775Z,3.66
2022-12-14T14:51:37.290Z,3.65
2022-12-14T14:53:28.346Z,3.56
2022-12-14T14:55:55.178Z,3.60
2022-12-14T14:57:55.861Z,3.59
2022-12-14T14:59:51.077Z,3.58
2022-12-14T15:01:27.659Z,3.56
2022-12-14T15:03:01.902Z,3.55
2022-12-14T15:04:47.091Z,3.52
2022-12-14T15:06:24.914Z,3.50
2022-12-14T15:08:01.475Z,3.45
2022-12-14T15:09:39.217Z,3.43
2022-12-14T15:11:17.703Z,3.43
2022-12-14T15:12:54.591Z,3.46
2022-12-14T15:14:46.694Z,3.46
2022-12-14T15:16:31.562Z,3.48
2022-12-14T15:18:18.624Z,3.43
2022-12-14T15:19:54.083Z,3.42
2022-12-14T15:21:29.209Z,3.36
2022-12-14T15:23:03.194Z,3.31
2022-12-14T15:24:40.336Z,3.32
2022-12-14T15:26:17.594Z,3.26
2022-12-14T15:27:52.025Z,3.37
2022-12-14T15:29:28.938Z,3.40
2022-12-14T15:31:03.213Z,3.42
2022-12-14T15:32:42.970Z,3.42
2022-12-14T15:34:22.354Z,3.44
2022-12-14T15:36:02.902Z,3.41
2022-12-14T15:37:43.037Z,3.39
2022-12-14T15:39:32.697Z,3.32
2022-12-14T15:41:08.220Z,3.33
2022-12-14T15:42:48.057Z,3.34
2022-12-14T15:44:23.166Z,3.32
2022-12-14T15:46:04.431Z,3.33
2022-12-14T15:47:38.742Z,3.30
2022-12-14T15:49:23.361Z,3.35
2022-12-14T15:50:59.217Z,3.35
2022-12-14T15:52:32.717Z,3.37
2022-12-14T15:54:13.585Z,3.36
2022-12-14T15:55:59.839Z,3.35
2022-12-14T15:57:34.410Z,3.32
2022-12-14T15:59:16.922Z,3.26
2022-12-14T16:00:53.820Z,3.20
2022-12-14T16:02:32.141Z,3.20
2022-12-14T16:04:07.913Z,3.12
2022-12-14T16:05:41.469Z,3.13
2022-12-14T16:07:18.881Z,3.18
2022-12-14T16:08:56.219Z,3.18
2022-12-14T16:10:33.752Z,3.23
2022-12-14T16:12:10.815Z,3.23
2022-12-14T16:13:45.451Z,3.25
2022-12-14T16:15:21.319Z,3.25
2022-12-14T16:16:55.539Z,3.28
2022-12-14T16:18:28.816Z,3.30
2022-12-14T16:20:04.985Z,3.30
2022-12-14T16:21:38.216Z,3.31
2022-12-14T16:23:28.048Z,3.32
2022-12-14T16:25:16.800Z,3.32
2022-12-14T16:26:59.108Z,3.37
2022-12-14T16:28:34.445Z,3.40
2022-12-14T16:30:23.436Z,3.45
2022-12-14T16:32:05.836Z,3.41
2022-12-14T16:33:41.719Z,3.40
2022-12-14T16:35:23.070Z,3.38
2022-12-14T16:37:31.056Z,3.35
2022-12-14T16:39:03.996Z,3.32
2022-12-14T16:40:39.292Z,3.35
2022-12-14T16:42:20.799Z,3.40
2022-12-14T16:43:57.217Z,3.43
2022-12-14T16:46:10.701Z,3.42
2022-12-14T16:48:04.579Z,3.35
2022-12-14T16:49:40.146Z,3.36
2022-12-14T16:52:05.557Z,3.47
2022-12-14T16:53:30.884Z,3.50
2022-12-14T16:55:12.065Z,3.51
2022-12-14T16:56:46.291Z,3.53
2022-12-14T16:58:21.498Z,3.52
2022-12-14T17:00:01.903Z,3.53
2022-12-14T17:01:42.817Z,3.52
2022-12-14T17:03:23.469Z,3.51
2022-12-14T17:04:58.589Z,3.51
2022-12-14T17:06:39.353Z,3.56
2022-12-14T17:08:13.125Z,3.57
2022-12-14T17:09:46.567Z,3.58
2022-12-14T17:11:21.575Z,3.59
2022-12-14T17:12:59.099Z,3.58
2022-12-14T17:14:34.021Z,3.58
2022-12-14T17:16:09.158Z,3.60
2022-12-14T17:17:43.041Z,3.58
2022-12-14T17:19:22.518Z,3.59
2022-12-14T17:20:55.815Z,3.59
2022-12-14T17:22:31.358Z,3.55
2022-12-14T17:24:04.994Z,3.50
2022-12-14T17:25:42.058Z,3.48
2022-12-14T17:27:23.068Z,3.50
2022-12-14T17:28:56.568Z,3.52
2022-12-14T17:30:34.352Z,3.56
2022-12-14T17:32:08.152Z,3.63
2022-12-14T17:33:41.377Z,3.61
2022-12-14T17:35:18.087Z,3.63
2022-12-14T17:36:51.910Z,3.67
2022-12-14T17:38:25.850Z,3.70
2022-12-14T17:40:00.032Z,3.72
2022-12-14T17:41:33.655Z,3.75
2022-12-14T17:43:07.337Z,3.73
2022-12-14T17:44:42.095Z,3.63
2022-12-14T17:46:16.758Z,3.65
2022-12-14T17:47:50.457Z,3.58
2022-12-14T17:49:35.029Z,3.59
2022-12-14T17:51:08.314Z,3.56
2022-12-14T17:52:41.553Z,3.55
2022-12-14T17:54:17.614Z,3.51
2022-12-14T17:55:50.812Z,3.51
2022-12-14T17:57:26.071Z,3.54
2022-12-14T17:58:59.215Z,3.57
2022-12-14T18:00:50.695Z,3.53
2022-12-14T18:02:33.390Z,3.53
2022-12-14T18:04:08.188Z,3.60
2022-12-14T18:05:48.375Z,3.63
2022-12-14T18:07:22.140Z,3.68
2022-12-14T18:08:55.295Z,3.71
2022-12-14T18:10:28.959Z,3.72
2022-12-14T18:12:22.567Z,3.70
2022-12-14T18:13:56.076Z,3.68
2022-12-14T18:15:31.667Z,3.63
2022-12-14T18:17:09.798Z,3.57
2022-12-14T18:18:46.407Z,3.59
2022-12-14T18:20:23.987Z,3.57
2022-12-14T18:21:58.099Z,3.55
2022-12-14T18:23:32.454Z,3.52
2022-12-14T18:25:22.729Z,3.48
2022-12-14T18:26:56.526Z,3.41
2022-12-14T18:28:29.922Z,3.41
2022-12-14T18:30:04.197Z,3.30
2022-12-14T18:31:38.879Z,3.31
2022-12-14T18:33:15.644Z,3.30
2022-12-14T18:34:50.246Z,3.26
2022-12-14T18:36:24.033Z,3.25
2022-12-14T18:37:57.301Z,3.23
2022-12-14T18:39:30.516Z,3.23
2022-12-14T18:41:03.747Z,3.22
2022-12-14T18:42:36.925Z,3.26
2022-12-14T18:44:11.904Z,3.26
2022-12-14T18:45:45.140Z,3.29
2022-12-14T18:47:40.763Z,3.28
2022-12-14T18:49:11.436Z,3.28
2022-12-14T18:50:46.091Z,3.25
2022-12-14T18:52:22.945Z,3.26
2022-12-14T18:53:58.116Z,3.27
2022-12-14T18:55:33.861Z,3.27
2022-12-14T18:57:07.126Z,3.23
2022-12-14T18:58:42.154Z,3.23
2022-12-14T19:00:17.594Z,3.28
2022-12-14T19:01:51.166Z,3.30
2022-12-14T19:03:25.845Z,3.34
2022-12-14T19:04:59.141Z,3.40
2022-12-14T19:06:44.077Z,3.39
2022-12-14T19:08:19.055Z,3.41
2022-12-14T19:09:52.316Z,3.39
2022-12-14T19:11:31.758Z,3.41
2022-12-14T19:13:06.764Z,3.46
2022-12-14T19:14:43.334Z,3.50
2022-12-14T19:16:16.672Z,3.53
2022-12-14T19:17:49.989Z,3.53
2022-12-14T19:19:25.724Z,3.44
2022-12-14T19:21:00.895Z,3.43
2022-12-14T19:22:35.547Z,3.43
2022-12-14T19:24:09.346Z,3.43
2022-12-14T19:25:43.053Z,3.41
2022-12-14T19:27:25.921Z,3.41
2022-12-14T19:29:09.366Z,3.39
2022-12-14T19:30:45.300Z,3.36
2022-12-14T19:32:18.420Z,3.36
2022-12-14T19:33:51.579Z,3.39
2022-12-14T19:35:25.662Z,3.40
2022-12-14T19:36:58.853Z,3.42
2022-12-14T19:38:35.298Z,3.42
2022-12-14T19:40:13.546Z,3.47
2022-12-14T19:41:47.994Z,3.47
2022-12-14T19:43:21.233Z,3.46
2022-12-14T19:44:54.472Z,3.43
2022-12-14T19:46:27.725Z,3.42
2022-12-14T19:48:00.896Z,3.43
2022-12-14T19:49:34.094Z,3.48
2022-12-14T19:51:08.678Z,3.42
2022-12-14T19:52:42.060Z,3.48
2022-12-14T19:54:16.696Z,3.47
2022-12-14T19:55:52.635Z,3.47
2022-12-14T19:57:25.901Z,3.44
2022-12-14T19:59:00.867Z,3.41
2022-12-14T20:00:34.092Z,3.42
2022-12-14T20:02:07.381Z,3.39
2022-12-14T20:03:40.948Z,3.37
2022-12-14T20:05:14.551Z,3.32
2022-12-14T20:06:47.759Z,3.43
2022-12-14T20:08:21.028Z,3.43
2022-12-14T20:09:55.593Z,3.41
2022-12-14T20:11:29.147Z,3.44
2022-12-14T20:13:02.503Z,3.42
2022-12-14T20:14:39.801Z,3.43
2022-12-14T20:16:17.311Z,3.42
2022-12-14T20:17:50.539Z,3.44
2022-12-14T20:19:24.133Z,3.45
2022-12-14T20:21:03.209Z,3.43
2022-12-14T20:22:36.789Z,3.40
2022-12-14T20:24:11.448Z,3.39
2022-12-14T20:25:46.073Z,3.36
2022-12-14T20:27:19.919Z,3.32
2022-12-14T20:28:54.884Z,3.29
2022-12-14T20:30:28.036Z,3.25
2022-12-14T20:32:01.231Z,3.22
2022-12-14T20:33:34.977Z,3.21
2022-12-14T20:35:11.005Z,3.20
2022-12-14T20:36:44.116Z,3.25
2022-12-14T20:38:17.377Z,3.28
2022-12-14T20:39:50.497Z,3.32
2022-12-14T20:41:26.702Z,3.37
2022-12-14T20:42:59.879Z,3.38
2022-12-14T20:44:33.155Z,3.39
2022-12-14T20:46:06.705Z,3.39
2022-12-14T20:47:40.739Z,3.39
2022-12-14T20:49:15.682Z,3.45
2022-12-14T20:50:50.524Z,3.48
2022-12-14T20:52:25.599Z,3.49
2022-12-14T20:53:58.835Z,3.52
2022-12-14T20:55:32.239Z,3.54
2022-12-14T20:57:06.871Z,3.55
2022-12-14T20:58:40.047Z,3.58
2022-12-14T21:00:14.504Z,3.59
2022-12-14T21:01:53.449Z,3.57
2022-12-14T21:03:29.372Z,3.63
2022-12-14T21:05:02.833Z,3.65
2022-12-14T21:06:39.271Z,3.67
2022-12-14T21:08:15.517Z,3.68
2022-12-14T21:09:48.757Z,3.67
2022-12-14T21:11:39.283Z,3.68
2022-12-14T21:13:13.884Z,3.64
2022-12-14T21:14:48.232Z,3.66
2022-12-14T21:16:21.574Z,3.59
2022-12-14T21:17:54.904Z,3.62
2022-12-14T21:19:28.292Z,3.54
2022-12-14T21:21:06.723Z,3.59
2022-12-14T21:22:40.182Z,3.58
2022-12-14T21:24:25.716Z,3.58
2022-12-14T21:26:04.658Z,3.57
2022-12-14T21:27:39.204Z,3.58
2022-12-14T21:29:16.850Z,3.58
2022-12-14T21:30:50.097Z,3.58
2022-12-14T21:32:24.148Z,3.57
2022-12-14T21:33:57.316Z,3.55
2022-12-14T21:35:30.495Z,3.54
2022-12-14T21:37:03.635Z,3.57
2022-12-14T21:38:37.330Z,3.56
2022-12-14T21:40:31.193Z,3.60
2022-12-14T21:42:15.903Z,3.65
2022-12-14T21:43:48.135Z,3.60
2022-12-14T21:45:22.764Z,3.55
2022-12-14T21:46:56.116Z,3.49
2022-12-14T21:48:29.254Z,3.53
2022-12-14T21:50:02.430Z,3.53
2022-12-14T21:51:36.115Z,3.55